sensor_id;sensor_type;location;lat;lon;timestamp;pressure;altitude;pressure_sealevel;temperature;humidity
41102;BME280;26845;50.190;19.178;2022-08-21T00:02:22;98181.26;;;18.74;96.69
41102;BME280;26845;50.190;19.178;2022-08-21T00:04:48;98182.30;;;18.76;96.83
41102;BME280;26845;50.190;19.178;2022-08-21T00:07:15;98182.09;;;18.78;97.02
41102;BME280;26845;50.190;19.178;2022-08-21T00:09:41;98174.05;;;18.77;97.00
41102;BME280;26845;50.190;19.178;2022-08-21T00:12:07;98178.47;;;18.78;97.01
41102;BME280;26845;50.190;19.178;2022-08-21T00:14:33;98175.91;;;18.82;97.27
41102;BME280;26845;50.190;19.178;2022-08-21T00:16:59;98179.56;;;18.86;97.15
41102;BME280;26845;50.190;19.178;2022-08-21T00:19:25;98175.56;;;18.87;97.34
41102;BME280;26845;50.190;19.178;2022-08-21T00:21:51;98174.36;;;18.88;97.26
41102;BME280;26845;50.190;19.178;2022-08-21T00:24:18;98176.20;;;18.91;97.24
41102;BME280;26845;50.190;19.178;2022-08-21T00:26:44;98169.71;;;18.86;97.59
41102;BME280;26845;50.190;19.178;2022-08-21T00:29:11;98167.06;;;18.84;97.59
41102;BME280;26845;50.190;19.178;2022-08-21T00:31:36;98166.66;;;18.82;97.73
41102;BME280;26845;50.190;19.178;2022-08-21T00:34:04;98167.90;;;18.84;97.80
41102;BME280;26845;50.190;19.178;2022-08-21T00:36:29;98158.68;;;18.87;97.79
41102;BME280;26845;50.190;19.178;2022-08-21T00:38:55;98155.91;;;18.95;98.01
41102;BME280;26845;50.190;19.178;2022-08-21T00:41:21;98164.64;;;19.03;97.95
41102;BME280;26845;50.190;19.178;2022-08-21T00:43:48;98157.80;;;19.04;97.65
41102;BME280;26845;50.190;19.178;2022-08-21T00:46:14;98150.36;;;19.02;97.65
41102;BME280;26845;50.190;19.178;2022-08-21T00:48:40;98153.16;;;18.98;97.94
41102;BME280;26845;50.190;19.178;2022-08-21T00:51:17;98154.30;;;18.94;97.99
41102;BME280;26845;50.190;19.178;2022-08-21T00:53:42;98141.05;;;18.98;98.19
41102;BME280;26845;50.190;19.178;2022-08-21T00:56:09;98143.92;;;19.01;98.23
41102;BME280;26845;50.190;19.178;2022-08-21T00:58:36;98140.77;;;19.10;98.26
41102;BME280;26845;50.190;19.178;2022-08-21T01:01:04;98140.38;;;19.12;98.06
41102;BME280;26845;50.190;19.178;2022-08-21T01:03:30;98131.74;;;19.14;97.96
41102;BME280;26845;50.190;19.178;2022-08-21T01:05:58;98121.95;;;19.21;98.25
41102;BME280;26845;50.190;19.178;2022-08-21T01:08:24;98123.83;;;19.30;98.18
41102;BME280;26845;50.190;19.178;2022-08-21T01:10:52;98118.63;;;19.36;98.12
41102;BME280;26845;50.190;19.178;2022-08-21T01:13:18;98118.89;;;19.44;98.25
41102;BME280;26845;50.190;19.178;2022-08-21T01:15:46;98111.08;;;19.51;98.07
41102;BME280;26845;50.190;19.178;2022-08-21T01:18:13;98106.91;;;19.58;98.08
41102;BME280;26845;50.190;19.178;2022-08-21T01:20:41;98110.81;;;19.67;98.05
41102;BME280;26845;50.190;19.178;2022-08-21T01:23:08;98109.61;;;19.75;97.91
41102;BME280;26845;50.190;19.178;2022-08-21T01:25:37;98111.27;;;19.80;97.62
41102;BME280;26845;50.190;19.178;2022-08-21T01:28:12;98100.22;;;19.84;97.57
41102;BME280;26845;50.190;19.178;2022-08-21T01:30:37;98098.62;;;19.87;97.44
41102;BME280;26845;50.190;19.178;2022-08-21T01:33:04;98093.98;;;19.92;97.30
41102;BME280;26845;50.190;19.178;2022-08-21T01:35:31;98094.22;;;19.93;97.25
41102;BME280;26845;50.190;19.178;2022-08-21T01:37:57;98093.61;;;19.97;97.19
41102;BME280;26845;50.190;19.178;2022-08-21T01:40:23;98095.45;;;20.03;97.08
41102;BME280;26845;50.190;19.178;2022-08-21T01:42:49;98095.87;;;20.05;97.06
41102;BME280;26845;50.190;19.178;2022-08-21T01:45:16;98085.58;;;20.06;96.96
41102;BME280;26845;50.190;19.178;2022-08-21T01:47:42;98078.76;;;20.11;96.97
41102;BME280;26845;50.190;19.178;2022-08-21T01:50:11;98070.72;;;20.13;96.76
41102;BME280;26845;50.190;19.178;2022-08-21T01:52:37;98064.84;;;20.12;96.68
41102;BME280;26845;50.190;19.178;2022-08-21T01:55:04;98063.44;;;20.08;96.61
41102;BME280;26845;50.190;19.178;2022-08-21T01:57:32;98064.84;;;20.05;96.65
41102;BME280;26845;50.190;19.178;2022-08-21T01:59:58;98052.95;;;20.02;96.73
41102;BME280;26845;50.190;19.178;2022-08-21T02:02:23;98049.91;;;19.97;96.60
41102;BME280;26845;50.190;19.178;2022-08-21T02:04:49;98041.63;;;19.94;96.82
41102;BME280;26845;50.190;19.178;2022-08-21T02:07:14;98046.70;;;19.98;97.13
41102;BME280;26845;50.190;19.178;2022-08-21T02:09:40;98057.59;;;20.04;97.18
41102;BME280;26845;50.190;19.178;2022-08-21T02:12:07;98055.77;;;20.05;96.90
41102;BME280;26845;50.190;19.178;2022-08-21T02:14:34;98054.36;;;20.02;96.90
41102;BME280;26845;50.190;19.178;2022-08-21T02:17:02;98057.56;;;19.96;96.82
41102;BME280;26845;50.190;19.178;2022-08-21T02:19:28;98062.59;;;19.97;97.16
41102;BME280;26845;50.190;19.178;2022-08-21T02:21:54;98059.77;;;20.00;97.20
41102;BME280;26845;50.190;19.178;2022-08-21T02:24:19;98049.33;;;20.05;97.36
41102;BME280;26845;50.190;19.178;2022-08-21T02:26:45;98041.67;;;20.09;97.36
41102;BME280;26845;50.190;19.178;2022-08-21T02:29:10;98038.05;;;20.12;97.31
41102;BME280;26845;50.190;19.178;2022-08-21T02:31:36;98034.05;;;20.13;97.28
41102;BME280;26845;50.190;19.178;2022-08-21T02:34:02;98037.25;;;20.15;97.32
41102;BME280;26845;50.190;19.178;2022-08-21T02:36:27;98034.23;;;20.17;97.05
41102;BME280;26845;50.190;19.178;2022-08-21T02:38:53;98033.66;;;20.18;97.49
41102;BME280;26845;50.190;19.178;2022-08-21T02:41:19;98030.84;;;20.25;97.56
41102;BME280;26845;50.190;19.178;2022-08-21T02:43:46;98020.95;;;20.29;97.48
41102;BME280;26845;50.190;19.178;2022-08-21T02:46:13;98026.02;;;20.29;97.23
41102;BME280;26845;50.190;19.178;2022-08-21T02:48:41;98032.05;;;20.28;97.20
41102;BME280;26845;50.190;19.178;2022-08-21T02:51:11;98039.52;;;20.30;97.11
41102;BME280;26845;50.190;19.178;2022-08-21T02:53:38;98038.30;;;20.31;97.04
41102;BME280;26845;50.190;19.178;2022-08-21T02:56:05;98039.33;;;20.32;96.87
41102;BME280;26845;50.190;19.178;2022-08-21T02:58:34;98045.16;;;20.33;96.97
41102;BME280;26845;50.190;19.178;2022-08-21T03:01:05;98048.41;;;20.35;96.93
41102;BME280;26845;50.190;19.178;2022-08-21T03:03:33;98053.23;;;20.38;97.06
41102;BME280;26845;50.190;19.178;2022-08-21T03:06:00;98051.03;;;20.41;97.07
41102;BME280;26845;50.190;19.178;2022-08-21T03:08:25;98047.78;;;20.43;96.89
41102;BME280;26845;50.190;19.178;2022-08-21T03:10:52;98039.73;;;20.45;96.89
41102;BME280;26845;50.190;19.178;2022-08-21T03:13:18;98037.33;;;20.47;96.87
41102;BME280;26845;50.190;19.178;2022-08-21T03:15:46;98036.91;;;20.49;96.73
41102;BME280;26845;50.190;19.178;2022-08-21T03:18:12;98041.95;;;20.45;96.60
41102;BME280;26845;50.190;19.178;2022-08-21T03:20:38;98046.80;;;20.41;96.64
41102;BME280;26845;50.190;19.178;2022-08-21T03:23:05;98050.42;;;20.42;96.94
41102;BME280;26845;50.190;19.178;2022-08-21T03:25:31;98063.34;;;20.47;96.83
41102;BME280;26845;50.190;19.178;2022-08-21T03:28:03;98064.52;;;20.45;96.71
41102;BME280;26845;50.190;19.178;2022-08-21T03:30:30;98064.94;;;20.48;96.57
41102;BME280;26845;50.190;19.178;2022-08-21T03:32:58;98073.02;;;20.49;96.54
41102;BME280;26845;50.190;19.178;2022-08-21T03:35:24;98072.80;;;20.52;96.55
41102;BME280;26845;50.190;19.178;2022-08-21T03:37:51;98077.47;;;20.54;96.53
41102;BME280;26845;50.190;19.178;2022-08-21T03:40:17;98081.13;;;20.58;96.63
41102;BME280;26845;50.190;19.178;2022-08-21T03:42:44;98084.33;;;20.60;96.57
41102;BME280;26845;50.190;19.178;2022-08-21T03:45:12;98085.36;;;20.61;96.39
41102;BME280;26845;50.190;19.178;2022-08-21T03:47:38;98092.80;;;20.60;96.23
41102;BME280;26845;50.190;19.178;2022-08-21T03:50:04;98086.97;;;20.59;96.24
41102;BME280;26845;50.190;19.178;2022-08-21T03:52:31;98089.59;;;20.58;96.24
41102;BME280;26845;50.190;19.178;2022-08-21T03:54:56;98087.58;;;20.58;96.24
41102;BME280;26845;50.190;19.178;2022-08-21T03:57:22;98086.77;;;20.58;96.22
41102;BME280;26845;50.190;19.178;2022-08-21T03:59:47;98081.93;;;20.58;96.34
41102;BME280;26845;50.190;19.178;2022-08-21T04:02:13;98086.16;;;20.62;96.28
41102;BME280;26845;50.190;19.178;2022-08-21T04:04:42;98088.19;;;20.61;96.33
41102;BME280;26845;50.190;19.178;2022-08-21T04:07:08;98085.16;;;20.64;96.40
41102;BME280;26845;50.190;19.178;2022-08-21T04:09:33;98081.12;;;20.65;96.38
41102;BME280;26845;50.190;19.178;2022-08-21T04:12:01;98084.55;;;20.64;96.31
41102;BME280;26845;50.190;19.178;2022-08-21T04:14:28;98080.13;;;20.63;96.43
41102;BME280;26845;50.190;19.178;2022-08-21T04:16:53;98079.52;;;20.64;96.46
41102;BME280;26845;50.190;19.178;2022-08-21T04:19:19;98084.75;;;20.62;96.41
41102;BME280;26845;50.190;19.178;2022-08-21T04:21:44;98083.53;;;20.59;96.20
41102;BME280;26845;50.190;19.178;2022-08-21T04:24:10;98083.73;;;20.57;96.41
41102;BME280;26845;50.190;19.178;2022-08-21T04:26:38;98089.79;;;20.55;96.30
41102;BME280;26845;50.190;19.178;2022-08-21T04:29:04;98092.17;;;20.50;96.26
41102;BME280;26845;50.190;19.178;2022-08-21T04:31:34;98090.34;;;20.48;96.39
41102;BME280;26845;50.190;19.178;2022-08-21T04:34:01;98091.75;;;20.48;96.46
41102;BME280;26845;50.190;19.178;2022-08-21T04:36:28;98088.93;;;20.48;96.47
41102;BME280;26845;50.190;19.178;2022-08-21T04:38:54;98089.54;;;20.47;96.42
41102;BME280;26845;50.190;19.178;2022-08-21T04:41:19;98088.73;;;20.50;96.59
41102;BME280;26845;50.190;19.178;2022-08-21T04:43:45;98086.91;;;20.52;96.55
41102;BME280;26845;50.190;19.178;2022-08-21T04:46:10;98084.53;;;20.54;96.57
41102;BME280;26845;50.190;19.178;2022-08-21T04:48:36;98093.83;;;20.58;96.62
41102;BME280;26845;50.190;19.178;2022-08-21T04:51:05;98085.97;;;20.61;96.61
41102;BME280;26845;50.190;19.178;2022-08-21T04:54:00;98088.18;;;20.65;96.57
41102;BME280;26845;50.190;19.178;2022-08-21T04:56:41;98085.35;;;20.69;96.58
41102;BME280;26845;50.190;19.178;2022-08-21T04:59:12;98085.16;;;20.71;96.56
41102;BME280;26845;50.190;19.178;2022-08-21T05:01:40;98080.72;;;20.74;96.70
41102;BME280;26845;50.190;19.178;2022-08-21T05:04:06;98089.19;;;20.77;96.79
41102;BME280;26845;50.190;19.178;2022-08-21T05:06:38;98091.20;;;20.80;96.73
41102;BME280;26845;50.190;19.178;2022-08-21T05:09:07;98099.28;;;20.82;96.59
41102;BME280;26845;50.190;19.178;2022-08-21T05:11:34;98094.45;;;20.75;96.29
41102;BME280;26845;50.190;19.178;2022-08-21T05:14:02;98099.88;;;20.74;96.48
41102;BME280;26845;50.190;19.178;2022-08-21T05:16:27;98096.44;;;20.75;96.73
41102;BME280;26845;50.190;19.178;2022-08-21T05:18:53;98109.76;;;20.74;96.62
41102;BME280;26845;50.190;19.178;2022-08-21T05:21:21;98112.20;;;20.72;96.57
41102;BME280;26845;50.190;19.178;2022-08-21T05:23:50;98114.80;;;20.71;96.74
41102;BME280;26845;50.190;19.178;2022-08-21T05:26:15;98111.18;;;20.67;96.45
41102;BME280;26845;50.190;19.178;2022-08-21T05:28:40;98109.77;;;20.63;96.59
41102;BME280;26845;50.190;19.178;2022-08-21T05:31:06;98111.37;;;20.64;96.80
41102;BME280;26845;50.190;19.178;2022-08-21T05:33:31;98114.00;;;20.67;97.12
41102;BME280;26845;50.190;19.178;2022-08-21T05:35:57;98113.00;;;20.73;97.25
41102;BME280;26845;50.190;19.178;2022-08-21T05:38:23;98109.78;;;20.78;97.44
41102;BME280;26845;50.190;19.178;2022-08-21T05:40:50;98103.33;;;20.84;97.57
41102;BME280;26845;50.190;19.178;2022-08-21T05:43:15;98106.36;;;20.93;97.65
41102;BME280;26845;50.190;19.178;2022-08-21T05:45:41;98101.30;;;20.99;97.51
41102;BME280;26845;50.190;19.178;2022-08-21T05:48:07;98104.13;;;21.03;97.46
41102;BME280;26845;50.190;19.178;2022-08-21T05:50:37;98104.53;;;21.05;97.56
41102;BME280;26845;50.190;19.178;2022-08-21T05:53:03;98104.73;;;21.13;97.93
41102;BME280;26845;50.190;19.178;2022-08-21T05:55:30;98100.70;;;21.21;98.13
41102;BME280;26845;50.190;19.178;2022-08-21T05:57:55;98101.29;;;21.28;98.03
41102;BME280;26845;50.190;19.178;2022-08-21T06:00:21;98105.13;;;21.33;97.96
41102;BME280;26845;50.190;19.178;2022-08-21T06:02:48;98112.20;;;21.37;97.87
41102;BME280;26845;50.190;19.178;2022-08-21T06:05:15;98111.59;;;21.44;97.94
41102;BME280;26845;50.190;19.178;2022-08-21T06:07:41;98105.73;;;21.50;97.94
41102;BME280;26845;50.190;19.178;2022-08-21T06:10:07;98106.11;;;21.60;97.87
41102;BME280;26845;50.190;19.178;2022-08-21T06:12:32;98099.63;;;21.63;97.58
41102;BME280;26845;50.190;19.178;2022-08-21T06:14:58;98107.31;;;21.69;97.59
41102;BME280;26845;50.190;19.178;2022-08-21T06:17:24;98112.14;;;21.72;97.35
41102;BME280;26845;50.190;19.178;2022-08-21T06:19:53;98119.61;;;21.78;97.44
41102;BME280;26845;50.190;19.178;2022-08-21T06:22:19;98121.19;;;21.83;97.20
41102;BME280;26845;50.190;19.178;2022-08-21T06:24:45;98118.17;;;21.82;96.99
41102;BME280;26845;50.190;19.178;2022-08-21T06:27:11;98119.98;;;21.87;96.78
41102;BME280;26845;50.190;19.178;2022-08-21T06:29:36;98122.61;;;21.83;96.59
41102;BME280;26845;50.190;19.178;2022-08-21T06:32:03;98117.16;;;21.84;96.79
41102;BME280;26845;50.190;19.178;2022-08-21T06:34:29;98122.62;;;21.86;96.58
41102;BME280;26845;50.190;19.178;2022-08-21T06:36:55;98119.98;;;21.87;96.66
41102;BME280;26845;50.190;19.178;2022-08-21T06:39:23;98118.56;;;21.87;95.90
41102;BME280;26845;50.190;19.178;2022-08-21T06:41:49;98123.22;;;21.82;96.26
41102;BME280;26845;50.190;19.178;2022-08-21T06:44:15;98126.84;;;21.83;96.36
41102;BME280;26845;50.190;19.178;2022-08-21T06:46:42;98123.44;;;21.83;96.27
41102;BME280;26845;50.190;19.178;2022-08-21T06:49:07;98125.43;;;21.83;96.04
41102;BME280;26845;50.190;19.178;2022-08-21T06:51:33;98126.45;;;21.84;96.34
41102;BME280;26845;50.190;19.178;2022-08-21T06:53:58;98131.70;;;21.89;96.40
41102;BME280;26845;50.190;19.178;2022-08-21T06:56:24;98138.75;;;21.93;96.20
41102;BME280;26845;50.190;19.178;2022-08-21T06:58:50;98139.34;;;21.96;96.25
41102;BME280;26845;50.190;19.178;2022-08-21T07:01:15;98144.02;;;21.94;95.87
41102;BME280;26845;50.190;19.178;2022-08-21T07:03:41;98136.11;;;21.94;95.95
41102;BME280;26845;50.190;19.178;2022-08-21T07:06:10;98139.16;;;21.95;96.11
41102;BME280;26845;50.190;19.178;2022-08-21T07:08:36;98143.77;;;21.97;96.04
41102;BME280;26845;50.190;19.178;2022-08-21T07:11:04;98143.97;;;22.01;95.84
41102;BME280;26845;50.190;19.178;2022-08-21T07:13:32;98148.83;;;22.01;95.63
41102;BME280;26845;50.190;19.178;2022-08-21T07:16:01;98149.27;;;21.92;95.12
41102;BME280;26845;50.190;19.178;2022-08-21T07:18:27;98144.62;;;21.87;95.33
41102;BME280;26845;50.190;19.178;2022-08-21T07:20:52;98147.67;;;21.77;94.85
41102;BME280;26845;50.190;19.178;2022-08-21T07:23:24;98148.28;;;21.76;95.60
41102;BME280;26845;50.190;19.178;2022-08-21T07:25:51;98166.06;;;21.73;95.31
41102;BME280;26845;50.190;19.178;2022-08-21T07:28:17;98172.16;;;21.50;93.17
41102;BME280;26845;50.190;19.178;2022-08-21T07:30:42;98173.75;;;21.23;93.15
41102;BME280;26845;50.190;19.178;2022-08-21T07:33:08;98173.33;;;20.99;92.91
41102;BME280;26845;50.190;19.178;2022-08-21T07:35:33;98173.52;;;20.79;93.02
41102;BME280;26845;50.190;19.178;2022-08-21T07:37:59;98175.70;;;20.69;93.11
41102;BME280;26845;50.190;19.178;2022-08-21T07:40:25;98175.28;;;20.63;93.48
41102;BME280;26845;50.190;19.178;2022-08-21T07:42:51;98172.26;;;20.58;93.30
41102;BME280;26845;50.190;19.178;2022-08-21T07:45:18;98183.52;;;20.55;93.09
41102;BME280;26845;50.190;19.178;2022-08-21T07:47:45;98181.72;;;20.53;93.57
41102;BME280;26845;50.190;19.178;2022-08-21T07:50:12;98173.67;;;20.58;93.68
41102;BME280;26845;50.190;19.178;2022-08-21T07:52:39;98168.22;;;20.63;93.47
41102;BME280;26845;50.190;19.178;2022-08-21T07:55:06;98166.61;;;20.62;93.06
41102;BME280;26845;50.190;19.178;2022-08-21T07:57:34;98170.84;;;20.58;92.22
41102;BME280;26845;50.190;19.178;2022-08-21T08:00:00;98168.19;;;20.52;92.52
41102;BME280;26845;50.190;19.178;2022-08-21T08:02:27;98163.38;;;20.60;93.27
41102;BME280;26845;50.190;19.178;2022-08-21T08:04:53;98157.56;;;20.73;93.36
41102;BME280;26845;50.190;19.178;2022-08-21T08:07:19;98159.80;;;20.84;92.91
41102;BME280;26845;50.190;19.178;2022-08-21T08:09:45;98159.02;;;20.98;92.99
41102;BME280;26845;50.190;19.178;2022-08-21T08:12:11;98155.80;;;21.07;92.12
41102;BME280;26845;50.190;19.178;2022-08-21T08:14:37;98160.84;;;21.18;92.25
41102;BME280;26845;50.190;19.178;2022-08-21T08:17:02;98157.42;;;21.29;91.94
41102;BME280;26845;50.190;19.178;2022-08-21T08:19:28;98154.83;;;21.38;91.56
41102;BME280;26845;50.190;19.178;2022-08-21T08:21:55;98152.98;;;21.50;91.21
41102;BME280;26845;50.190;19.178;2022-08-21T08:24:21;98155.58;;;21.60;91.02
41102;BME280;26845;50.190;19.178;2022-08-21T08:26:46;98157.41;;;21.69;90.76
41102;BME280;26845;50.190;19.178;2022-08-21T08:29:12;98153.34;;;21.81;90.49
41102;BME280;26845;50.190;19.178;2022-08-21T08:31:38;98153.30;;;21.95;90.63
41102;BME280;26845;50.190;19.178;2022-08-21T08:34:03;98151.23;;;22.03;89.61
41102;BME280;26845;50.190;19.178;2022-08-21T08:36:35;98151.84;;;22.09;89.44
41102;BME280;26845;50.190;19.178;2022-08-21T08:39:04;98155.46;;;22.20;89.58
41102;BME280;26845;50.190;19.178;2022-08-21T08:41:31;98152.97;;;22.33;89.26
41102;BME280;26845;50.190;19.178;2022-08-21T08:44:03;98140.37;;;22.45;89.13
41102;BME280;26845;50.190;19.178;2022-08-21T08:46:39;98140.47;;;22.64;89.21
41102;BME280;26845;50.190;19.178;2022-08-21T08:49:15;98143.62;;;22.77;88.68
41102;BME280;26845;50.190;19.178;2022-08-21T08:54:44;98144.86;;;23.09;88.25
41102;BME280;26845;50.190;19.178;2022-08-21T08:57:15;98140.00;;;23.32;87.13
41102;BME280;26845;50.190;19.178;2022-08-21T08:59:49;98138.27;;;23.45;86.51
41102;BME280;26845;50.190;19.178;2022-08-21T09:02:17;98138.14;;;23.60;86.02
41102;BME280;26845;50.190;19.178;2022-08-21T09:04:45;98128.00;;;23.81;85.87
41102;BME280;26845;50.190;19.178;2022-08-21T09:10:17;98138.40;;;24.10;83.46
41102;BME280;26845;50.190;19.178;2022-08-21T09:12:51;98141.80;;;24.13;82.47
41102;BME280;26845;50.190;19.178;2022-08-21T09:23:29;98146.66;;;25.20;82.81
41102;BME280;26845;50.190;19.178;2022-08-21T09:25:59;98147.22;;;25.47;81.02
41102;BME280;26845;50.190;19.178;2022-08-21T09:28:22;98145.99;;;25.60;81.00
41102;BME280;26845;50.190;19.178;2022-08-21T09:30:48;98149.45;;;25.71;81.34
41102;BME280;26845;50.190;19.178;2022-08-21T09:33:15;98146.84;;;25.68;79.65
41102;BME280;26845;50.190;19.178;2022-08-21T09:35:50;98150.13;;;25.55;79.29
41102;BME280;26845;50.190;19.178;2022-08-21T09:38:30;98148.53;;;25.42;79.43
41102;BME280;26845;50.190;19.178;2022-08-21T09:40:59;98158.11;;;25.28;78.94
41102;BME280;26845;50.190;19.178;2022-08-21T09:43:30;98153.48;;;25.11;77.56
41102;BME280;26845;50.190;19.178;2022-08-21T09:48:38;98154.78;;;24.79;78.38
41102;BME280;26845;50.190;19.178;2022-08-21T09:51:08;98153.62;;;24.73;78.75
41102;BME280;26845;50.190;19.178;2022-08-21T09:53:37;98159.04;;;24.64;78.53
41102;BME280;26845;50.190;19.178;2022-08-21T09:56:16;98163.83;;;24.55;78.67
41102;BME280;26845;50.190;19.178;2022-08-21T09:59:19;98154.97;;;24.50;78.21
41102;BME280;26845;50.190;19.178;2022-08-21T10:01:44;98163.47;;;24.34;77.66
41102;BME280;26845;50.190;19.178;2022-08-21T10:04:11;98160.91;;;24.28;77.75
41102;BME280;26845;50.190;19.178;2022-08-21T10:06:37;98165.81;;;24.24;77.66
41102;BME280;26845;50.190;19.178;2022-08-21T10:09:08;98162.34;;;24.09;76.53
41102;BME280;26845;50.190;19.178;2022-08-21T10:11:35;98163.81;;;23.87;76.32
41102;BME280;26845;50.190;19.178;2022-08-21T10:14:07;98163.95;;;23.72;76.36
41102;BME280;26845;50.190;19.178;2022-08-21T10:19:28;98162.69;;;23.32;76.63
41102;BME280;26845;50.190;19.178;2022-08-21T10:25:00;98169.02;;;22.98;75.63
41102;BME280;26845;50.190;19.178;2022-08-21T10:27:30;98164.58;;;22.90;75.44
41102;BME280;26845;50.190;19.178;2022-08-21T10:30:09;98160.24;;;22.75;75.90
41102;BME280;26845;50.190;19.178;2022-08-21T10:35:27;98154.58;;;22.75;76.81
41102;BME280;26845;50.190;19.178;2022-08-21T10:46:47;98161.06;;;23.05;76.03
41102;BME280;26845;50.190;19.178;2022-08-21T11:00:09;98171.63;;;22.94;75.96
41102;BME280;26845;50.190;19.178;2022-08-21T11:05:12;98178.73;;;22.57;78.03
41102;BME280;26845;50.190;19.178;2022-08-21T11:10:37;98175.82;;;22.31;77.66
41102;BME280;26845;50.190;19.178;2022-08-21T11:13:21;98175.27;;;22.20;78.38
41102;BME280;26845;50.190;19.178;2022-08-21T11:16:00;98173.25;;;22.10;78.86
41102;BME280;26845;50.190;19.178;2022-08-21T11:18:39;98168.00;;;22.05;79.12
41102;BME280;26845;50.190;19.178;2022-08-21T11:23:57;98171.42;;;22.08;79.80
41102;BME280;26845;50.190;19.178;2022-08-21T11:26:30;98167.17;;;22.15;79.68
41102;BME280;26845;50.190;19.178;2022-08-21T11:29:16;98166.73;;;22.28;79.76
41102;BME280;26845;50.190;19.178;2022-08-21T11:42:22;98156.16;;;22.42;79.15
41102;BME280;26845;50.190;19.178;2022-08-21T11:50:45;98157.37;;;22.78;79.58
41102;BME280;26845;50.190;19.178;2022-08-21T11:53:15;98149.51;;;23.07;79.60
41102;BME280;26845;50.190;19.178;2022-08-21T11:55:50;98150.98;;;23.26;78.16
41102;BME280;26845;50.190;19.178;2022-08-21T11:58:22;98151.74;;;23.34;76.35
41102;BME280;26845;50.190;19.178;2022-08-21T12:01:01;98154.94;;;23.36;76.57
41102;BME280;26845;50.190;19.178;2022-08-21T12:03:38;98154.36;;;23.55;76.82
41102;BME280;26845;50.190;19.178;2022-08-21T12:06:09;98162.38;;;23.45;75.59
41102;BME280;26845;50.190;19.178;2022-08-21T12:13:38;98160.95;;;22.89;77.06
41102;BME280;26845;50.190;19.178;2022-08-21T12:16:07;98162.19;;;22.85;76.61
41102;BME280;26845;50.190;19.178;2022-08-21T12:18:37;98156.61;;;22.74;76.80
41102;BME280;26845;50.190;19.178;2022-08-21T12:21:05;98156.85;;;22.64;75.79
41102;BME280;26845;50.190;19.178;2022-08-21T12:23:46;98160.34;;;22.53;77.09
41102;BME280;26845;50.190;19.178;2022-08-21T12:29:15;98162.54;;;22.61;77.34
41102;BME280;26845;50.190;19.178;2022-08-21T12:31:58;98161.84;;;22.76;77.59
41102;BME280;26845;50.190;19.178;2022-08-21T12:34:33;98161.56;;;22.89;77.51
41102;BME280;26845;50.190;19.178;2022-08-21T12:37:14;98159.31;;;22.92;77.53
41102;BME280;26845;50.190;19.178;2022-08-21T12:39:33;98156.27;;;22.98;77.38
41102;BME280;26845;50.190;19.178;2022-08-21T12:42:00;98148.74;;;23.03;76.97
41102;BME280;26845;50.190;19.178;2022-08-21T12:44:34;98145.91;;;23.03;76.84
41102;BME280;26845;50.190;19.178;2022-08-21T12:47:04;98143.77;;;22.88;76.15
41102;BME280;26845;50.190;19.178;2022-08-21T12:49:32;98145.28;;;22.71;76.46
41102;BME280;26845;50.190;19.178;2022-08-21T12:52:05;98149.64;;;22.53;77.32
41102;BME280;26845;50.190;19.178;2022-08-21T12:54:38;98151.69;;;22.45;77.36
41102;BME280;26845;50.190;19.178;2022-08-21T12:57:06;98157.05;;;22.29;77.08
41102;BME280;26845;50.190;19.178;2022-08-21T12:59:32;98151.22;;;22.20;77.63
41102;BME280;26845;50.190;19.178;2022-08-21T13:02:11;98170.81;;;22.23;77.78
41102;BME280;26845;50.190;19.178;2022-08-21T13:04:36;98158.66;;;22.30;78.22
41102;BME280;26845;50.190;19.178;2022-08-21T13:07:09;98164.70;;;22.35;77.79
41102;BME280;26845;50.190;19.178;2022-08-21T13:09:44;98169.15;;;22.33;78.00
41102;BME280;26845;50.190;19.178;2022-08-21T13:12:12;98173.03;;;22.23;77.63
41102;BME280;26845;50.190;19.178;2022-08-21T13:14:40;98160.33;;;22.02;77.82
41102;BME280;26845;50.190;19.178;2022-08-21T13:17:13;98156.98;;;21.77;78.23
41102;BME280;26845;50.190;19.178;2022-08-21T13:19:42;98158.81;;;21.72;79.02
41102;BME280;26845;50.190;19.178;2022-08-21T13:22:21;98171.73;;;21.63;79.52
41102;BME280;26845;50.190;19.178;2022-08-21T13:24:48;98171.77;;;21.45;79.29
41102;BME280;26845;50.190;19.178;2022-08-21T13:27:19;98174.97;;;21.22;81.00
41102;BME280;26845;50.190;19.178;2022-08-21T13:29:48;98188.67;;;21.02;80.53
41102;BME280;26845;50.190;19.178;2022-08-21T13:32:18;98188.66;;;20.87;81.98
41102;BME280;26845;50.190;19.178;2022-08-21T13:34:45;98178.55;;;20.72;81.36
41102;BME280;26845;50.190;19.178;2022-08-21T13:37:11;98174.70;;;20.63;82.41
41102;BME280;26845;50.190;19.178;2022-08-21T13:39:38;98175.69;;;20.61;82.45
41102;BME280;26845;50.190;19.178;2022-08-21T13:42:08;98176.62;;;20.49;83.19
41102;BME280;26845;50.190;19.178;2022-08-21T13:44:39;98179.19;;;20.30;83.21
41102;BME280;26845;50.190;19.178;2022-08-21T13:47:09;98182.31;;;20.07;83.75
41102;BME280;26845;50.190;19.178;2022-08-21T13:49:41;98190.01;;;19.79;84.70
41102;BME280;26845;50.190;19.178;2022-08-21T13:52:17;98182.39;;;19.59;85.70
41102;BME280;26845;50.190;19.178;2022-08-21T13:54:52;98194.97;;;19.44;84.36
41102;BME280;26845;50.190;19.178;2022-08-21T13:57:31;98195.69;;;19.34;86.63
41102;BME280;26845;50.190;19.178;2022-08-21T14:00:09;98189.17;;;19.26;85.27
41102;BME280;26845;50.190;19.178;2022-08-21T14:02:42;98200.55;;;19.13;86.23
41102;BME280;26845;50.190;19.178;2022-08-21T14:05:30;98205.42;;;18.96;85.60
41102;BME280;26845;50.190;19.178;2022-08-21T14:07:47;98195.36;;;18.78;88.98
41102;BME280;26845;50.190;19.178;2022-08-21T14:10:18;98203.85;;;18.64;87.09
41102;BME280;26845;50.190;19.178;2022-08-21T14:12:50;98212.17;;;18.54;87.90
41102;BME280;26845;50.190;19.178;2022-08-21T14:15:18;98208.62;;;18.43;89.93